sensor_id;sensor_type;location;lat;lon;timestamp;temperature;humidity
18073;DHT22;9161;47.348;9.648;2023-04-15T00:01:04;2.70;99.90
18073;DHT22;9161;47.348;9.648;2023-04-15T00:06:09;2.70;99.90
18073;DHT22;9161;47.348;9.648;2023-04-15T00:11:11;2.80;99.90
18073;DHT22;9161;47.348;9.648;2023-04-15T00:16:14;2.90;99.90
18073;DHT22;9161;47.348;9.648;2023-04-15T00:21:17;2.70;99.90
18073;DHT22;9161;47.348;9.648;2023-04-15T00:26:20;2.60;99.90
18073;DHT22;9161;47.348;9.648;2023-04-15T00:31:22;2.70;99.90
18073;DHT22;9161;47.348;9.648;2023-04-15T00:36:25;2.60;99.90
18073;DHT22;9161;47.348;9.648;2023-04-15T00:41:28;2.60;99.90
18073;DHT22;9161;47.348;9.648;2023-04-15T00:46:31;2.40;99.90
18073;DHT22;9161;47.348;9.648;2023-04-15T00:51:35;2.40;99.90
18073;DHT22;9161;47.348;9.648;2023-04-15T00:56:38;2.40;99.90
18073;DHT22;9161;47.348;9.648;2023-04-15T01:01:40;2.40;99.90
18073;DHT22;9161;47.348;9.648;2023-04-15T01:06:44;2.20;99.90
18073;DHT22;9161;47.348;9.648;2023-04-15T01:11:46;2.10;99.90
18073;DHT22;9161;47.348;9.648;2023-04-15T01:16:52;2.00;99.90
18073;DHT22;9161;47.348;9.648;2023-04-15T01:21:55;1.90;99.90
18073;DHT22;9161;47.348;9.648;2023-04-15T01:27:00;2.20;99.90
18073;DHT22;9161;47.348;9.648;2023-04-15T01:32:03;2.80;99.90
18073;DHT22;9161;47.348;9.648;2023-04-15T01:37:05;3.40;99.90
18073;DHT22;9161;47.348;9.648;2023-04-15T01:42:09;3.60;99.90
18073;DHT22;9161;47.348;9.648;2023-04-15T01:47:12;3.70;99.90
18073;DHT22;9161;47.348;9.648;2023-04-15T01:52:14;3.60;99.90
18073;DHT22;9161;47.348;9.648;2023-04-15T01:57:18;3.40;99.90
18073;DHT22;9161;47.348;9.648;2023-04-15T02:02:20;3.40;99.90
18073;DHT22;9161;47.348;9.648;2023-04-15T02:07:22;3.00;99.90
18073;DHT22;9161;47.348;9.648;2023-04-15T02:12:26;2.70;99.90
18073;DHT22;9161;47.348;9.648;2023-04-15T02:17:28;2.40;99.90
18073;DHT22;9161;47.348;9.648;2023-04-15T02:22:31;2.20;99.90
18073;DHT22;9161;47.348;9.648;2023-04-15T02:27:35;2.10;99.90
18073;DHT22;9161;47.348;9.648;2023-04-15T02:32:37;2.20;99.90
18073;DHT22;9161;47.348;9.648;2023-04-15T02:37:40;2.20;99.90
18073;DHT22;9161;47.348;9.648;2023-04-15T02:42:46;2.00;99.90
18073;DHT22;9161;47.348;9.648;2023-04-15T02:47:48;1.90;99.90
18073;DHT22;9161;47.348;9.648;2023-04-15T02:52:51;1.70;99.90
18073;DHT22;9161;47.348;9.648;2023-04-15T02:57:55;1.60;99.90
18073;DHT22;9161;47.348;9.648;2023-04-15T03:03:06;1.30;99.90
18073;DHT22;9161;47.348;9.648;2023-04-15T03:08:08;1.50;99.90
18073;DHT22;9161;47.348;9.648;2023-04-15T03:13:12;1.70;99.90
18073;DHT22;9161;47.348;9.648;2023-04-15T03:18:14;1.80;99.90
18073;DHT22;9161;47.348;9.648;2023-04-15T03:23:16;1.70;99.90
18073;DHT22;9161;47.348;9.648;2023-04-15T03:28:20;1.70;99.90
18073;DHT22;9161;47.348;9.648;2023-04-15T03:33:22;2.10;99.90
18073;DHT22;9161;47.348;9.648;2023-04-15T03:38:24;2.60;99.90
18073;DHT22;9161;47.348;9.648;2023-04-15T03:43:28;2.90;99.90
18073;DHT22;9161;47.348;9.648;2023-04-15T03:48:30;2.80;99.90
18073;DHT22;9161;47.348;9.648;2023-04-15T03:53:32;2.60;99.90
18073;DHT22;9161;47.348;9.648;2023-04-15T03:58:36;2.70;99.90
18073;DHT22;9161;47.348;9.648;2023-04-15T04:03:38;2.90;99.90
18073;DHT22;9161;47.348;9.648;2023-04-15T04:08:40;2.60;99.90
18073;DHT22;9161;47.348;9.648;2023-04-15T04:13:44;2.30;99.90
18073;DHT22;9161;47.348;9.648;2023-04-15T04:18:46;2.10;99.90
18073;DHT22;9161;47.348;9.648;2023-04-15T04:23:48;1.90;99.90
18073;DHT22;9161;47.348;9.648;2023-04-15T04:28:52;1.80;99.90
18073;DHT22;9161;47.348;9.648;2023-04-15T04:33:54;1.60;99.90
18073;DHT22;9161;47.348;9.648;2023-04-15T04:38:56;1.70;99.90
18073;DHT22;9161;47.348;9.648;2023-04-15T04:44:00;1.50;99.90
18073;DHT22;9161;47.348;9.648;2023-04-15T04:49:03;1.40;99.90
18073;DHT22;9161;47.348;9.648;2023-04-15T04:54:05;1.70;99.90
18073;DHT22;9161;47.348;9.648;2023-04-15T04:59:09;1.60;99.90
18073;DHT22;9161;47.348;9.648;2023-04-15T05:04:11;1.50;99.90
18073;DHT22;9161;47.348;9.648;2023-04-15T05:09:13;1.30;99.90
18073;DHT22;9161;47.348;9.648;2023-04-15T05:14:17;1.30;99.90
18073;DHT22;9161;47.348;9.648;2023-04-15T05:19:22;1.30;99.90
18073;DHT22;9161;47.348;9.648;2023-04-15T05:24:24;1.90;99.90
18073;DHT22;9161;47.348;9.648;2023-04-15T05:29:28;2.00;99.90
18073;DHT22;9161;47.348;9.648;2023-04-15T05:34:30;1.90;99.90
18073;DHT22;9161;47.348;9.648;2023-04-15T05:39:32;2.20;99.90
18073;DHT22;9161;47.348;9.648;2023-04-15T05:44:36;2.50;99.90
18073;DHT22;9161;47.348;9.648;2023-04-15T05:49:38;3.00;99.90
18073;DHT22;9161;47.348;9.648;2023-04-15T05:54:41;3.50;99.90
18073;DHT22;9161;47.348;9.648;2023-04-15T05:59:44;3.90;99.90
18073;DHT22;9161;47.348;9.648;2023-04-15T06:05:04;4.30;99.90
18073;DHT22;9161;47.348;9.648;2023-04-15T06:10:45;4.30;99.90
18073;DHT22;9161;47.348;9.648;2023-04-15T06:15:52;4.70;99.90
18073;DHT22;9161;47.348;9.648;2023-04-15T06:20:57;4.90;99.90
18073;DHT22;9161;47.348;9.648;2023-04-15T06:26:15;5.30;99.90
18073;DHT22;9161;47.348;9.648;2023-04-15T06:31:42;5.50;99.90
18073;DHT22;9161;47.348;9.648;2023-04-15T06:36:47;6.20;99.90
18073;DHT22;9161;47.348;9.648;2023-04-15T06:41:51;6.40;99.90
18073;DHT22;9161;47.348;9.648;2023-04-15T06:46:54;6.50;99.90
18073;DHT22;9161;47.348;9.648;2023-04-15T06:51:57;6.80;99.90
18073;DHT22;9161;47.348;9.648;2023-04-15T06:57:00;7.00;99.90
18073;DHT22;9161;47.348;9.648;2023-04-15T07:02:08;6.80;99.90
18073;DHT22;9161;47.348;9.648;2023-04-15T07:07:12;6.80;99.90
18073;DHT22;9161;47.348;9.648;2023-04-15T07:12:15;7.00;99.90
18073;DHT22;9161;47.348;9.648;2023-04-15T07:17:20;7.10;99.90
18073;DHT22;9161;47.348;9.648;2023-04-15T07:22:22;7.50;99.90
18073;DHT22;9161;47.348;9.648;2023-04-15T07:27:24;7.80;99.90
18073;DHT22;9161;47.348;9.648;2023-04-15T07:32:28;8.00;99.90
18073;DHT22;9161;47.348;9.648;2023-04-15T07:37:31;8.50;99.90
18073;DHT22;9161;47.348;9.648;2023-04-15T07:42:34;9.50;99.90
18073;DHT22;9161;47.348;9.648;2023-04-15T07:47:42;10.60;99.90
18073;DHT22;9161;47.348;9.648;2023-04-15T07:52:45;11.20;99.90
18073;DHT22;9161;47.348;9.648;2023-04-15T07:57:48;11.30;99.90
18073;DHT22;9161;47.348;9.648;2023-04-15T08:02:53;11.40;99.90
18073;DHT22;9161;47.348;9.648;2023-04-15T08:07:57;11.10;99.90
18073;DHT22;9161;47.348;9.648;2023-04-15T08:12:59;10.70;99.90
18073;DHT22;9161;47.348;9.648;2023-04-15T08:18:03;10.20;99.90
18073;DHT22;9161;47.348;9.648;2023-04-15T08:23:06;9.60;99.90
18073;DHT22;9161;47.348;9.648;2023-04-15T08:28:08;9.80;99.90
18073;DHT22;9161;47.348;9.648;2023-04-15T08:33:12;9.80;99.90
18073;DHT22;9161;47.348;9.648;2023-04-15T08:38:14;9.90;99.90
18073;DHT22;9161;47.348;9.648;2023-04-15T08:43:20;10.20;99.90
18073;DHT22;9161;47.348;9.648;2023-04-15T08:48:26;9.90;99.90
18073;DHT22;9161;47.348;9.648;2023-04-15T08:53:30;10.70;99.90
18073;DHT22;9161;47.348;9.648;2023-04-15T08:58:32;10.90;99.90
18073;DHT22;9161;47.348;9.648;2023-04-15T09:03:36;11.00;99.90
18073;DHT22;9161;47.348;9.648;2023-04-15T09:08:39;11.30;99.90
18073;DHT22;9161;47.348;9.648;2023-04-15T09:13:42;11.00;99.90
18073;DHT22;9161;47.348;9.648;2023-04-15T09:18:45;11.90;99.90
18073;DHT22;9161;47.348;9.648;2023-04-15T09:23:55;11.30;99.90
18073;DHT22;9161;47.348;9.648;2023-04-15T09:29:03;11.30;99.90
18073;DHT22;9161;47.348;9.648;2023-04-15T09:34:07;11.60;99.90
18073;DHT22;9161;47.348;9.648;2023-04-15T09:39:09;12.00;99.90
18073;DHT22;9161;47.348;9.648;2023-04-15T09:44:22;12.00;99.90
18073;DHT22;9161;47.348;9.648;2023-04-15T09:49:25;11.90;99.90
18073;DHT22;9161;47.348;9.648;2023-04-15T09:54:36;12.20;99.90
18073;DHT22;9161;47.348;9.648;2023-04-15T09:59:39;12.50;99.90
18073;DHT22;9161;47.348;9.648;2023-04-15T10:04:43;12.70;99.90
18073;DHT22;9161;47.348;9.648;2023-04-15T10:09:48;12.80;99.90
18073;DHT22;9161;47.348;9.648;2023-04-15T10:14:55;13.80;99.90
18073;DHT22;9161;47.348;9.648;2023-04-15T10:20:00;13.30;99.90
18073;DHT22;9161;47.348;9.648;2023-04-15T10:25:02;14.80;99.90
18073;DHT22;9161;47.348;9.648;2023-04-15T10:30:06;15.60;99.20
18073;DHT22;9161;47.348;9.648;2023-04-15T10:35:11;17.50;99.90
18073;DHT22;9161;47.348;9.648;2023-04-15T10:40:26;18.50;98.60
18073;DHT22;9161;47.348;9.648;2023-04-15T10:45:33;17.30;95.10
18073;DHT22;9161;47.348;9.648;2023-04-15T10:50:37;17.60;95.60
18073;DHT22;9161;47.348;9.648;2023-04-15T10:55:39;17.60;94.40
18073;DHT22;9161;47.348;9.648;2023-04-15T11:00:49;17.70;98.20
18073;DHT22;9161;47.348;9.648;2023-04-15T11:05:54;17.50;98.20
18073;DHT22;9161;47.348;9.648;2023-04-15T11:10:56;17.70;98.60
18073;DHT22;9161;47.348;9.648;2023-04-15T11:16:00;17.80;98.20
18073;DHT22;9161;47.348;9.648;2023-04-15T11:21:06;17.80;98.10
18073;DHT22;9161;47.348;9.648;2023-04-15T11:26:09;17.30;97.60
18073;DHT22;9161;47.348;9.648;2023-04-15T11:31:13;16.80;97.40
18073;DHT22;9161;47.348;9.648;2023-04-15T11:36:17;16.40;98.30
18073;DHT22;9161;47.348;9.648;2023-04-15T11:41:20;16.30;98.30
18073;DHT22;9161;47.348;9.648;2023-04-15T11:46:28;16.10;99.30
18073;DHT22;9161;47.348;9.648;2023-04-15T11:51:33;16.50;99.90
18073;DHT22;9161;47.348;9.648;2023-04-15T11:56:36;16.70;99.30
18073;DHT22;9161;47.348;9.648;2023-04-15T12:01:39;17.00;99.00
18073;DHT22;9161;47.348;9.648;2023-04-15T12:06:45;16.40;97.70
18073;DHT22;9161;47.348;9.648;2023-04-15T12:11:48;15.70;97.10
18073;DHT22;9161;47.348;9.648;2023-04-15T12:16:52;15.90;97.70
18073;DHT22;9161;47.348;9.648;2023-04-15T12:22:00;17.10;98.30
18073;DHT22;9161;47.348;9.648;2023-04-15T12:27:05;17.70;99.30
18073;DHT22;9161;47.348;9.648;2023-04-15T12:32:09;17.50;96.60
18073;DHT22;9161;47.348;9.648;2023-04-15T12:37:12;17.00;95.50
18073;DHT22;9161;47.348;9.648;2023-04-15T12:42:16;16.20;96.70
18073;DHT22;9161;47.348;9.648;2023-04-15T12:47:18;15.90;99.00
18073;DHT22;9161;47.348;9.648;2023-04-15T12:52:22;15.80;98.90
18073;DHT22;9161;47.348;9.648;2023-04-15T12:57:25;15.80;98.80
18073;DHT22;9161;47.348;9.648;2023-04-15T13:02:27;16.20;98.50
18073;DHT22;9161;47.348;9.648;2023-04-15T13:07:31;16.20;99.40
18073;DHT22;9161;47.348;9.648;2023-04-15T13:12:33;16.30;98.50
18073;DHT22;9161;47.348;9.648;2023-04-15T13:17:37;16.10;97.30
18073;DHT22;9161;47.348;9.648;2023-04-15T13:22:41;16.60;98.50
18073;DHT22;9161;47.348;9.648;2023-04-15T13:27:43;17.00;98.00
18073;DHT22;9161;47.348;9.648;2023-04-15T13:32:46;17.10;97.60
18073;DHT22;9161;47.348;9.648;2023-04-15T13:37:53;17.10;97.30
18073;DHT22;9161;47.348;9.648;2023-04-15T13:42:55;17.20;95.40
18073;DHT22;9161;47.348;9.648;2023-04-15T13:47:58;17.30;96.00
18073;DHT22;9161;47.348;9.648;2023-04-15T13:53:02;16.70;93.50
18073;DHT22;9161;47.348;9.648;2023-04-15T13:58:05;16.40;91.30
18073;DHT22;9161;47.348;9.648;2023-04-15T14:03:08;16.70;94.90
18073;DHT22;9161;47.348;9.648;2023-04-15T14:08:13;16.80;94.90
18073;DHT22;9161;47.348;9.648;2023-04-15T14:13:15;16.90;94.10
18073;DHT22;9161;47.348;9.648;2023-04-15T14:18:19;16.30;92.60
18073;DHT22;9161;47.348;9.648;2023-04-15T14:23:22;15.60;94.10
18073;DHT22;9161;47.348;9.648;2023-04-15T14:28:24;15.30;94.90
18073;DHT22;9161;47.348;9.648;2023-04-15T14:33:27;15.30;96.90
18073;DHT22;9161;47.348;9.648;2023-04-15T14:38:32;15.10;97.00
18073;DHT22;9161;47.348;9.648;2023-04-15T14:43:41;15.00;95.30
18073;DHT22;9161;47.348;9.648;2023-04-15T14:48:45;14.70;94.70
18073;DHT22;9161;47.348;9.648;2023-04-15T14:53:49;14.60;95.50
18073;DHT22;9161;47.348;9.648;2023-04-15T14:58:51;14.50;96.60
18073;DHT22;9161;47.348;9.648;2023-04-15T15:03:53;14.30;94.70
18073;DHT22;9161;47.348;9.648;2023-04-15T15:08:58;15.00;99.40
18073;DHT22;9161;47.348;9.648;2023-04-15T15:14:01;14.60;94.90
18073;DHT22;9161;47.348;9.648;2023-04-15T15:19:04;13.80;93.90
18073;DHT22;9161;47.348;9.648;2023-04-15T15:24:09;13.40;94.70
18073;DHT22;9161;47.348;9.648;2023-04-15T15:29:11;13.00;96.20
18073;DHT22;9161;47.348;9.648;2023-04-15T15:34:14;12.60;95.80
18073;DHT22;9161;47.348;9.648;2023-04-15T15:39:18;12.60;94.70
18073;DHT22;9161;47.348;9.648;2023-04-15T15:44:21;12.40;97.80
18073;DHT22;9161;47.348;9.648;2023-04-15T15:49:23;12.20;97.40
18073;DHT22;9161;47.348;9.648;2023-04-15T15:54:29;12.60;98.50
18073;DHT22;9161;47.348;9.648;2023-04-15T15:59:33;12.50;99.70
18073;DHT22;9161;47.348;9.648;2023-04-15T16:04:36;12.40;97.60
18073;DHT22;9161;47.348;9.648;2023-04-15T16:09:40;12.10;99.90
18073;DHT22;9161;47.348;9.648;2023-04-15T16:14:42;12.10;99.70
18073;DHT22;9161;47.348;9.648;2023-04-15T16:19:45;11.90;97.70
18073;DHT22;9161;47.348;9.648;2023-04-15T16:25:01;11.90;99.10
18073;DHT22;9161;47.348;9.648;2023-04-15T16:30:04;11.70;97.50
18073;DHT22;9161;47.348;9.648;2023-04-15T16:35:07;11.50;97.60
18073;DHT22;9161;47.348;9.648;2023-04-15T16:40:14;11.50;97.80
18073;DHT22;9161;47.348;9.648;2023-04-15T16:45:16;11.50;98.10
18073;DHT22;9161;47.348;9.648;2023-04-15T16:50:19;11.40;97.80
18073;DHT22;9161;47.348;9.648;2023-04-15T16:55:22;11.20;99.90
18073;DHT22;9161;47.348;9.648;2023-04-15T17:00:24;11.00;99.90
18073;DHT22;9161;47.348;9.648;2023-04-15T17:05:27;10.70;99.90
18073;DHT22;9161;47.348;9.648;2023-04-15T17:10:32;10.40;99.90
18073;DHT22;9161;47.348;9.648;2023-04-15T17:15:35;10.30;99.90
18073;DHT22;9161;47.348;9.648;2023-04-15T17:20:38;10.20;99.90
18073;DHT22;9161;47.348;9.648;2023-04-15T17:25:42;10.10;99.90
18073;DHT22;9161;47.348;9.648;2023-04-15T17:30:44;9.90;99.90
18073;DHT22;9161;47.348;9.648;2023-04-15T17:35:47;9.50;99.90
18073;DHT22;9161;47.348;9.648;2023-04-15T17:40:52;9.10;99.90
18073;DHT22;9161;47.348;9.648;2023-04-15T17:45:55;8.70;99.90
18073;DHT22;9161;47.348;9.648;2023-04-15T17:51:01;8.40;99.90
18073;DHT22;9161;47.348;9.648;2023-04-15T17:56:05;8.30;99.90
18073;DHT22;9161;47.348;9.648;2023-04-15T18:01:08;8.10;99.90
18073;DHT22;9161;47.348;9.648;2023-04-15T18:06:12;8.00;99.90
18073;DHT22;9161;47.348;9.648;2023-04-15T18:11:18;7.90;99.90
18073;DHT22;9161;47.348;9.648;2023-04-15T18:16:21;7.70;99.90
18073;DHT22;9161;47.348;9.648;2023-04-15T18:21:23;7.70;99.90
18073;DHT22;9161;47.348;9.648;2023-04-15T18:26:30;7.60;99.90
18073;DHT22;9161;47.348;9.648;2023-04-15T18:31:34;7.20;99.90
18073;DHT22;9161;47.348;9.648;2023-04-15T18:36:37;7.10;99.90
18073;DHT22;9161;47.348;9.648;2023-04-15T18:41:41;6.80;99.90
18073;DHT22;9161;47.348;9.648;2023-04-15T18:46:45;6.70;99.90
18073;DHT22;9161;47.348;9.648;2023-04-15T18:51:48;6.60;99.90
18073;DHT22;9161;47.348;9.648;2023-04-15T18:56:53;6.60;99.90
18073;DHT22;9161;47.348;9.648;2023-04-15T19:01:59;6.60;99.90
18073;DHT22;9161;47.348;9.648;2023-04-15T19:07:02;6.50;99.90
18073;DHT22;9161;47.348;9.648;2023-04-15T19:12:07;6.60;99.90
18073;DHT22;9161;47.348;9.648;2023-04-15T19:17:11;6.60;99.90
18073;DHT22;9161;47.348;9.648;2023-04-15T19:22:15;6.70;99.90
18073;DHT22;9161;47.348;9.648;2023-04-15T19:27:19;6.70;99.90
18073;DHT22;9161;47.348;9.648;2023-04-15T19:32:22;6.70;99.90
18073;DHT22;9161;47.348;9.648;2023-04-15T19:37:25;6.70;99.90
18073;DHT22;9161;47.348;9.648;2023-04-15T19:42:29;6.70;99.90
18073;DHT22;9161;47.348;9.648;2023-04-15T19:47:33;6.70;99.90
18073;DHT22;9161;47.348;9.648;2023-04-15T19:52:37;6.60;99.90
18073;DHT22;9161;47.348;9.648;2023-04-15T19:57:42;6.50;99.90
18073;DHT22;9161;47.348;9.648;2023-04-15T20:02:46;6.40;99.90
18073;DHT22;9161;47.348;9.648;2023-04-15T20:07:50;6.40;99.90
18073;DHT22;9161;47.348;9.648;2023-04-15T20:12:56;6.40;99.90
18073;DHT22;9161;47.348;9.648;2023-04-15T20:17:59;6.30;99.90
18073;DHT22;9161;47.348;9.648;2023-04-15T20:23:05;6.40;99.90
18073;DHT22;9161;47.348;9.648;2023-04-15T20:28:11;6.40;99.90
18073;DHT22;9161;47.348;9.648;2023-04-15T20:33:14;6.50;99.90
18073;DHT22;9161;47.348;9.648;2023-04-15T20:38:17;6.50;99.90
18073;DHT22;9161;47.348;9.648;2023-04-15T20:43:21;6.40;99.90
18073;DHT22;9161;47.348;9.648;2023-04-15T20:48:25;6.30;99.90
18073;DHT22;9161;47.348;9.648;2023-04-15T20:53:28;6.20;99.90
18073;DHT22;9161;47.348;9.648;2023-04-15T20:58:32;6.30;99.90
18073;DHT22;9161;47.348;9.648;2023-04-15T21:03:36;6.30;99.90
18073;DHT22;9161;47.348;9.648;2023-04-15T21:08:38;6.30;99.90
18073;DHT22;9161;47.348;9.648;2023-04-15T21:13:43;6.30;99.90
18073;DHT22;9161;47.348;9.648;2023-04-15T21:18:46;6.20;99.90
18073;DHT22;9161;47.348;9.648;2023-04-15T21:23:48;6.30;99.90
18073;DHT22;9161;47.348;9.648;2023-04-15T21:28:52;6.20;99.90
18073;DHT22;9161;47.348;9.648;2023-04-15T21:33:54;6.30;99.90
18073;DHT22;9161;47.348;9.648;2023-04-15T21:39:02;6.30;99.90
18073;DHT22;9161;47.348;9.648;2023-04-15T21:44:06;6.30;99.90
18073;DHT22;9161;47.348;9.648;2023-04-15T21:49:08;6.20;99.90
18073;DHT22;9161;47.348;9.648;2023-04-15T21:54:10;6.30;99.90
18073;DHT22;9161;47.348;9.648;2023-04-15T21:59:14;6.20;99.90
18073;DHT22;9161;47.348;9.648;2023-04-15T22:04:16;6.20;99.90
18073;DHT22;9161;47.348;9.648;2023-04-15T22:09:18;6.20;99.90
18073;DHT22;9161;47.348;9.648;2023-04-15T22:14:22;6.10;99.90
18073;DHT22;9161;47.348;9.648;2023-04-15T22:19:24;6.10;99.90
18073;DHT22;9161;47.348;9.648;2023-04-15T22:24:26;6.20;99.90
18073;DHT22;9161;47.348;9.648;2023-04-15T22:29:40;6.20;99.90
18073;DHT22;9161;47.348;9.648;2023-04-15T22:34:42;6.20;99.90
18073;DHT22;9161;47.348;9.648;2023-04-15T22:39:44;6.20;99.90
18073;DHT22;9161;47.348;9.648;2023-04-15T22:44:49;6.20;99.90
18073;DHT22;9161;47.348;9.648;2023-04-15T22:49:51;6.20;99.90
18073;DHT22;9161;47.348;9.648;2023-04-15T22:54:53;6.10;99.90
18073;DHT22;9161;47.348;9.648;2023-04-15T22:59:57;6.20;99.90
18073;DHT22;9161;47.348;9.648;2023-04-15T23:04:59;6.20;99.90
18073;DHT22;9161;47.348;9.648;2023-04-15T23:10:10;6.30;99.90
18073;DHT22;9161;47.348;9.648;2023-04-15T23:15:14;6.30;99.90
18073;DHT22;9161;47.348;9.648;2023-04-15T23:20:16;6.20;99.90
18073;DHT22;9161;47.348;9.648;2023-04-15T23:25:18;6.20;99.90
18073;DHT22;9161;47.348;9.648;2023-04-15T23:30:23;6.20;99.90
18073;DHT22;9161;47.348;9.648;2023-04-15T23:35:25;6.20;99.90
18073;DHT22;9161;47.348;9.648;2023-04-15T23:40:28;6.20;99.90
18073;DHT22;9161;47.348;9.648;2023-04-15T23:45:31;6.20;99.90
18073;DHT22;9161;47.348;9.648;2023-04-15T23:50:34;6.30;99.90
18073;DHT22;9161;47.348;9.648;2023-04-15T23:55:37;6.20;99.90
